createdAt,value
2018-03-22T00:02:49.061Z,50.49
2018-03-22T00:04:26.473Z,50.47
2018-03-22T00:06:05.462Z,50.43
2018-03-22T00:07:43.011Z,50.47
2018-03-22T00:09:21.158Z,50.46
2018-03-22T00:10:58.986Z,50.49
2018-03-22T00:12:36.541Z,50.52
2018-03-22T00:14:14.922Z,50.52
2018-03-22T00:15:53.574Z,50.49
2018-03-22T00:17:32.922Z,50.40
2018-03-22T00:20:48.060Z,50.32
2018-03-22T00:22:38.444Z,50.30
2018-03-22T00:24:16.193Z,50.26
2018-03-22T00:25:53.574Z,50.23
2018-03-22T00:27:31.985Z,50.23
2018-03-22T00:29:11.135Z,50.29
2018-03-22T00:30:49.796Z,50.34
2018-03-22T00:32:27.478Z,50.37
2018-03-22T00:35:49.203Z,50.42
2018-03-22T00:37:26.593Z,50.47
2018-03-22T00:39:04.376Z,50.48
2018-03-22T00:40:42.231Z,50.50
2018-03-22T00:42:21.105Z,50.54
2018-03-22T00:43:58.813Z,50.51
2018-03-22T00:45:37.108Z,50.53
2018-03-22T00:47:15.376Z,50.54
2018-03-22T00:48:53.618Z,50.51
2018-03-22T00:50:31.381Z,50.50
2018-03-22T00:52:10.333Z,50.52
2018-03-22T00:53:49.129Z,50.54
2018-03-22T00:55:26.604Z,50.57
2018-03-22T00:57:04.200Z,50.59
2018-03-22T00:58:42.022Z,50.57
2018-03-22T01:00:24.792Z,50.55
2018-03-22T01:02:03.541Z,50.54
2018-03-22T01:03:45.640Z,50.58
2018-03-22T01:05:23.842Z,50.58
2018-03-22T01:07:02.587Z,50.55
2018-03-22T01:08:41.180Z,50.55
2018-03-22T01:10:19.249Z,50.53
2018-03-22T01:11:57.002Z,50.54
2018-03-22T01:13:35.236Z,50.55
2018-03-22T01:15:16.987Z,50.58
2018-03-22T01:16:56.450Z,50.63
2018-03-22T01:18:36.259Z,50.64
2018-03-22T01:20:14.098Z,50.64
2018-03-22T01:21:52.038Z,50.63
2018-03-22T01:23:30.927Z,50.64
2018-03-22T01:25:08.703Z,50.61
2018-03-22T01:26:46.359Z,50.59
2018-03-22T01:28:23.899Z,50.60
2018-03-22T01:30:02.807Z,50.60
2018-03-22T01:31:42.352Z,50.56
2018-03-22T01:33:20.266Z,50.56
2018-03-22T01:34:58.058Z,50.57
2018-03-22T01:36:36.294Z,50.57
2018-03-22T01:38:14.295Z,50.62
2018-03-22T01:39:53.207Z,50.64
2018-03-22T01:41:31.361Z,50.65
2018-03-22T01:43:11.376Z,50.69
2018-03-22T01:44:49.628Z,50.71
2018-03-22T01:46:29.481Z,50.73
2018-03-22T01:48:07.053Z,50.72
2018-03-22T01:49:44.680Z,50.70
2018-03-22T01:51:22.447Z,50.70
2018-03-22T01:53:14.810Z,50.68
2018-03-22T01:54:52.321Z,50.68
2018-03-22T01:56:30.154Z,50.64
2018-03-22T01:58:07.741Z,50.64
2018-03-22T01:59:45.267Z,50.67
2018-03-22T02:01:23.256Z,50.70
2018-03-22T02:03:01.183Z,50.72
2018-03-22T02:04:40.099Z,50.75
2018-03-22T02:06:17.750Z,50.76
2018-03-22T02:07:56.019Z,50.77
2018-03-22T02:09:34.792Z,50.78
2018-03-22T02:11:12.652Z,50.77
2018-03-22T02:12:50.244Z,50.71
2018-03-22T02:14:28.745Z,50.70
2018-03-22T02:16:10.581Z,50.72
2018-03-22T02:19:46.917Z,50.78
2018-03-22T02:21:24.529Z,50.80
2018-03-22T02:23:02.069Z,50.81
2018-03-22T02:24:39.764Z,50.81
2018-03-22T02:26:17.966Z,50.80
2018-03-22T02:27:55.044Z,50.80
2018-03-22T02:29:31.812Z,50.79
2018-03-22T02:31:10.162Z,50.81
2018-03-22T02:32:48.050Z,50.81
2018-03-22T02:34:25.587Z,50.79
2018-03-22T02:36:03.795Z,50.79
2018-03-22T02:37:41.853Z,50.83
2018-03-22T02:39:19.321Z,50.73
2018-03-22T02:40:56.877Z,50.73
2018-03-22T02:42:33.978Z,50.74
2018-03-22T02:44:12.437Z,50.73
2018-03-22T02:45:51.063Z,50.73
2018-03-22T02:47:29.936Z,50.72
2018-03-22T02:49:07.214Z,50.67
2018-03-22T02:50:45.088Z,50.66
2018-03-22T02:52:22.205Z,50.64
2018-03-22T02:54:08.453Z,50.67
2018-03-22T02:55:46.863Z,50.61
2018-03-22T02:57:24.322Z,50.59
2018-03-22T02:59:01.999Z,50.60
2018-03-22T03:00:44.948Z,50.61
2018-03-22T03:02:22.428Z,50.62
2018-03-22T03:04:00.133Z,50.68
2018-03-22T03:05:37.442Z,50.68
2018-03-22T03:07:21.454Z,50.70
2018-03-22T03:08:58.476Z,50.75
2018-03-22T03:10:35.547Z,50.72
2018-03-22T03:12:12.731Z,50.71
2018-03-22T03:13:49.769Z,50.75
2018-03-22T03:15:27.095Z,50.78
2018-03-22T03:17:04.001Z,50.78
2018-03-22T03:18:41.824Z,50.71
2018-03-22T03:20:19.603Z,50.66
2018-03-22T03:21:58.454Z,50.67
2018-03-22T03:23:35.206Z,50.71
2018-03-22T03:25:12.446Z,50.74
2018-03-22T03:26:49.477Z,50.78
2018-03-22T03:28:26.638Z,50.78
2018-03-22T03:30:04.813Z,50.82
2018-03-22T03:31:42.414Z,50.86
2018-03-22T03:33:19.220Z,50.86
2018-03-22T03:34:56.680Z,50.86
2018-03-22T03:36:33.815Z,50.80
2018-03-22T03:38:10.506Z,50.80
2018-03-22T03:39:47.566Z,50.83
2018-03-22T03:41:25.296Z,50.82
2018-03-22T03:43:03.074Z,50.83
2018-03-22T03:44:40.339Z,50.85
2018-03-22T03:46:17.587Z,50.87
2018-03-22T03:47:55.536Z,50.92
2018-03-22T03:49:32.453Z,50.94
2018-03-22T03:51:09.217Z,50.96
2018-03-22T03:52:46.546Z,50.96
2018-03-22T03:54:24.680Z,50.99
2018-03-22T03:56:02.873Z,50.96
2018-03-22T03:57:41.511Z,50.87
2018-03-22T03:59:30.201Z,50.86
2018-03-22T04:01:07.621Z,50.90
2018-03-22T04:02:45.613Z,50.92
2018-03-22T04:04:22.630Z,50.92
2018-03-22T04:06:00.759Z,50.91
2018-03-22T04:07:38.184Z,50.94
2018-03-22T04:09:14.845Z,50.96
2018-03-22T04:10:52.387Z,50.95
2018-03-22T04:12:29.392Z,50.97
2018-03-22T04:14:06.908Z,50.95
2018-03-22T04:15:48.877Z,50.96
2018-03-22T04:17:25.705Z,50.96
2018-03-22T04:19:03.251Z,50.91
2018-03-22T04:20:40.271Z,50.91
2018-03-22T04:22:17.889Z,50.89
2018-03-22T04:23:54.831Z,50.93
2018-03-22T04:25:32.254Z,50.96
2018-03-22T04:27:09.412Z,50.99
2018-03-22T04:28:46.554Z,51.00
2018-03-22T04:30:24.520Z,50.99
2018-03-22T04:32:01.742Z,51.02
2018-03-22T04:33:39.046Z,51.06
2018-03-22T04:35:16.563Z,51.03
2018-03-22T04:36:53.409Z,51.02
2018-03-22T04:38:30.458Z,51.02
2018-03-22T04:40:08.077Z,51.05
2018-03-22T04:41:45.547Z,51.08
2018-03-22T04:43:22.743Z,51.09
2018-03-22T04:45:00.135Z,51.11
2018-03-22T04:46:36.815Z,51.12
2018-03-22T04:48:14.059Z,51.14
2018-03-22T04:49:50.780Z,51.11
2018-03-22T04:51:28.229Z,51.11
2018-03-22T04:53:05.050Z,51.14
2018-03-22T04:54:42.055Z,51.16
2018-03-22T04:56:19.788Z,51.17
2018-03-22T04:57:57.003Z,51.17
2018-03-22T04:59:33.687Z,51.13
2018-03-22T05:01:10.926Z,51.11
2018-03-22T05:02:50.856Z,51.13
2018-03-22T05:04:29.135Z,51.15
2018-03-22T05:06:06.408Z,51.18
2018-03-22T05:07:43.784Z,51.22
2018-03-22T05:09:20.960Z,51.26
2018-03-22T05:10:58.407Z,51.27
2018-03-22T05:12:35.673Z,51.26
2018-03-22T05:14:13.596Z,51.28
2018-03-22T05:15:51.825Z,51.30
2018-03-22T05:17:29.452Z,51.32
2018-03-22T05:19:06.844Z,51.33
2018-03-22T05:20:44.004Z,51.34
2018-03-22T05:22:21.056Z,51.36
2018-03-22T05:23:58.842Z,51.33
2018-03-22T05:25:35.862Z,51.32
2018-03-22T05:27:13.844Z,51.32
2018-03-22T05:28:51.649Z,51.32
2018-03-22T05:30:29.549Z,51.33
2018-03-22T05:32:07.185Z,51.35
2018-03-22T05:33:44.783Z,51.37
2018-03-22T05:35:24.346Z,51.38
2018-03-22T05:37:02.681Z,51.39
2018-03-22T05:38:40.271Z,51.38
2018-03-22T05:40:17.836Z,51.39
2018-03-22T05:41:55.587Z,51.41
2018-03-22T05:43:34.019Z,51.41
2018-03-22T05:45:14.290Z,51.42
2018-03-22T05:46:52.257Z,51.42
2018-03-22T05:48:29.806Z,51.42
2018-03-22T05:50:07.430Z,51.41
2018-03-22T05:51:45.439Z,51.43
2018-03-22T05:53:24.260Z,51.41
2018-03-22T05:55:02.177Z,51.43
2018-03-22T05:56:39.900Z,51.40
2018-03-22T05:58:18.144Z,51.35
2018-03-22T05:59:56.427Z,51.37
2018-03-22T06:01:34.681Z,51.39
2018-03-22T06:03:12.799Z,51.40
2018-03-22T06:04:50.646Z,51.42
2018-03-22T06:06:28.273Z,51.45
2018-03-22T06:08:06.936Z,51.43
2018-03-22T06:09:44.614Z,51.39
2018-03-22T06:11:22.632Z,51.37
2018-03-22T06:13:00.159Z,51.37
2018-03-22T06:14:38.505Z,51.34
2018-03-22T06:16:16.762Z,51.37
2018-03-22T06:17:54.655Z,51.41
2018-03-22T06:19:33.247Z,51.36
2018-03-22T06:21:12.419Z,51.35
2018-03-22T06:22:50.249Z,51.38
2018-03-22T06:24:30.945Z,51.39
2018-03-22T06:26:09.142Z,51.38
2018-03-22T06:27:53.886Z,51.42
2018-03-22T06:29:31.600Z,51.44
2018-03-22T06:31:09.738Z,51.40
2018-03-22T06:32:47.815Z,51.43
2018-03-22T06:34:26.800Z,51.44
2018-03-22T06:36:04.666Z,51.39
2018-03-22T06:37:43.397Z,51.34
2018-03-22T06:39:22.436Z,51.32
2018-03-22T06:41:00.317Z,51.33
2018-03-22T06:42:38.145Z,51.40
2018-03-22T06:44:17.101Z,51.45
2018-03-22T06:45:55.730Z,51.43
2018-03-22T06:47:33.311Z,51.45
2018-03-22T06:49:11.254Z,51.41
2018-03-22T06:50:49.034Z,51.45
2018-03-22T06:52:27.007Z,51.48
2018-03-22T06:54:04.843Z,51.48
2018-03-22T06:55:42.628Z,51.54
2018-03-22T06:57:23.460Z,51.56
2018-03-22T06:59:01.723Z,51.55
2018-03-22T07:00:39.450Z,51.58
2018-03-22T07:02:17.332Z,51.63
2018-03-22T07:03:55.386Z,51.62
2018-03-22T07:05:33.585Z,51.61
2018-03-22T07:07:11.521Z,51.59
2018-03-22T07:08:49.069Z,51.58
2018-03-22T07:10:26.726Z,51.61
2018-03-22T07:12:05.099Z,51.62
2018-03-22T07:13:42.728Z,51.68
2018-03-22T07:15:20.489Z,51.69
2018-03-22T07:16:58.189Z,51.68
2018-03-22T07:18:36.806Z,51.71
2018-03-22T07:20:15.585Z,51.75
2018-03-22T07:21:53.233Z,51.77
2018-03-22T07:25:05.191Z,51.87
2018-03-22T07:26:42.773Z,51.93
2018-03-22T07:28:20.585Z,51.97
2018-03-22T07:29:58.446Z,51.95
2018-03-22T07:31:36.696Z,51.91
2018-03-22T07:33:14.212Z,51.86
2018-03-22T07:36:22.534Z,51.92
2018-03-22T07:38:01.028Z,51.98
2018-03-22T07:39:38.575Z,51.98
2018-03-22T07:41:16.948Z,51.99
2018-03-22T07:42:59.030Z,52.02
2018-03-22T07:44:41.542Z,52.03
2018-03-22T07:46:19.379Z,52.07
2018-03-22T07:47:56.970Z,52.09
2018-03-22T07:49:35.396Z,52.15
2018-03-22T07:51:13.133Z,52.17
2018-03-22T07:52:50.733Z,52.15
2018-03-22T07:54:28.920Z,52.12
2018-03-22T07:56:07.375Z,52.14
2018-03-22T07:57:45.566Z,52.16
2018-03-22T07:59:23.109Z,52.17
2018-03-22T08:01:01.229Z,52.21
2018-03-22T08:02:39.049Z,52.23
2018-03-22T08:04:17.139Z,52.29
2018-03-22T08:05:54.750Z,52.36
2018-03-22T08:07:32.826Z,52.33
2018-03-22T08:09:10.312Z,52.29
2018-03-22T08:10:48.238Z,52.30
2018-03-22T08:12:25.722Z,52.30
2018-03-22T08:14:03.369Z,52.32
2018-03-22T08:15:41.034Z,52.37
2018-03-22T08:17:18.930Z,52.38
2018-03-22T08:18:56.959Z,52.38
2018-03-22T08:20:35.621Z,52.39
2018-03-22T08:22:13.342Z,52.37
2018-03-22T08:23:51.931Z,52.37
2018-03-22T08:25:29.642Z,52.42
2018-03-22T08:27:07.438Z,52.45
2018-03-22T08:28:45.182Z,52.49
2018-03-22T08:30:25.849Z,52.51
2018-03-22T08:32:03.392Z,52.52
2018-03-22T08:33:41.462Z,52.51
2018-03-22T08:35:18.819Z,52.56
2018-03-22T08:36:58.188Z,52.57
2018-03-22T08:38:36.013Z,52.61
2018-03-22T08:40:13.400Z,52.67
2018-03-22T08:43:26.414Z,52.75
2018-03-22T08:45:03.752Z,52.74
2018-03-22T08:46:41.542Z,52.76
2018-03-22T08:48:19.063Z,52.74
2018-03-22T08:49:57.333Z,52.77
2018-03-22T08:51:34.777Z,52.80
2018-03-22T08:53:12.941Z,52.79
2018-03-22T08:54:50.171Z,52.84
2018-03-22T08:56:27.969Z,52.89
2018-03-22T08:58:05.318Z,52.84
2018-03-22T08:59:42.873Z,52.79
2018-03-22T09:01:20.626Z,52.76
2018-03-22T09:02:59.386Z,52.78
2018-03-22T09:04:36.749Z,52.79
2018-03-22T09:06:14.166Z,52.80
2018-03-22T09:07:51.600Z,52.82
2018-03-22T09:09:29.474Z,52.88
2018-03-22T09:12:41.801Z,52.93
2018-03-22T09:14:19.184Z,52.97
2018-03-22T09:15:57.221Z,53.03
2018-03-22T09:17:34.570Z,53.10
2018-03-22T09:19:11.976Z,53.12
2018-03-22T09:20:49.171Z,53.13
2018-03-22T09:22:26.971Z,53.12
2018-03-22T09:24:04.530Z,53.06
2018-03-22T09:25:41.813Z,53.06
2018-03-22T09:27:18.942Z,53.10
2018-03-22T09:28:57.237Z,53.15
2018-03-22T09:30:34.532Z,53.19
2018-03-22T09:32:11.793Z,53.27
2018-03-22T09:33:48.932Z,53.29
2018-03-22T09:35:26.968Z,53.34
2018-03-22T09:37:04.339Z,53.38
2018-03-22T09:38:42.509Z,53.44
2018-03-22T09:40:19.922Z,53.48
2018-03-22T09:41:57.611Z,53.49
2018-03-22T09:43:35.535Z,53.51
2018-03-22T09:45:15.113Z,53.52
2018-03-22T09:46:52.290Z,53.55
2018-03-22T09:48:29.745Z,53.59
2018-03-22T09:50:07.504Z,53.61
2018-03-22T09:51:44.881Z,53.60
2018-03-22T09:53:23.015Z,53.60
2018-03-22T09:55:00.591Z,53.66
2018-03-22T09:56:37.709Z,53.66
2018-03-22T09:58:15.000Z,53.69
2018-03-22T09:59:51.984Z,53.73
2018-03-22T10:01:29.889Z,53.74
2018-03-22T10:03:06.795Z,53.73
2018-03-22T10:04:44.657Z,53.73
2018-03-22T10:06:22.690Z,53.79
2018-03-22T10:08:00.766Z,53.82
2018-03-22T10:09:38.164Z,53.80
2018-03-22T10:11:15.257Z,53.81
2018-03-22T10:12:53.667Z,53.87
2018-03-22T10:14:31.155Z,53.88
2018-03-22T10:16:08.453Z,53.95
2018-03-22T10:17:45.834Z,54.01
2018-03-22T10:19:23.624Z,54.05
2018-03-22T10:21:00.895Z,54.03
2018-03-22T10:22:38.155Z,54.04
2018-03-22T10:24:15.224Z,54.10
2018-03-22T10:25:53.607Z,54.13
2018-03-22T10:27:30.713Z,54.15
2018-03-22T10:29:08.092Z,54.15
2018-03-22T10:30:45.636Z,54.20
2018-03-22T10:32:24.025Z,54.20
2018-03-22T10:34:01.061Z,54.24
2018-03-22T10:35:38.129Z,54.26
2018-03-22T10:37:16.005Z,54.28
2018-03-22T10:38:53.593Z,54.36
2018-03-22T10:40:30.543Z,54.40
2018-03-22T10:42:08.341Z,54.42
2018-03-22T10:43:45.723Z,54.44
2018-03-22T10:47:14.004Z,54.47
2018-03-22T10:48:50.989Z,54.53
2018-03-22T10:52:09.430Z,54.62
2018-03-22T10:53:46.272Z,54.66
2018-03-22T10:55:23.257Z,54.69
2018-03-22T10:57:00.302Z,54.70
2018-03-22T10:58:37.927Z,54.73
2018-03-22T11:00:21.786Z,54.71
2018-03-22T11:02:01.807Z,54.70
2018-03-22T11:03:42.715Z,54.73
2018-03-22T11:05:20.208Z,54.74
2018-03-22T11:06:57.410Z,54.81
2018-03-22T11:08:34.617Z,54.86
2018-03-22T11:10:12.346Z,54.91
2018-03-22T11:11:49.966Z,54.95
2018-03-22T11:13:27.193Z,54.97
2018-03-22T11:15:04.335Z,55.02
2018-03-22T11:16:41.583Z,55.06
2018-03-22T11:18:19.134Z,55.10
2018-03-22T11:19:56.464Z,55.15
2018-03-22T11:21:33.695Z,55.18
2018-03-22T11:23:10.869Z,55.18
2018-03-22T11:24:49.174Z,55.20
2018-03-22T11:26:26.127Z,55.24
2018-03-22T11:28:03.159Z,55.27
2018-03-22T11:29:40.987Z,55.28
2018-03-22T11:31:19.187Z,55.29
2018-03-22T11:32:56.263Z,55.32
2018-03-22T11:34:33.406Z,55.33
2018-03-22T11:36:10.418Z,55.39
2018-03-22T11:37:48.506Z,55.43
2018-03-22T11:39:26.324Z,55.45
2018-03-22T11:41:04.340Z,55.47
2018-03-22T11:42:42.272Z,55.49
2018-03-22T11:44:20.484Z,55.52
2018-03-22T11:45:57.840Z,55.56
2018-03-22T11:47:34.954Z,55.61
2018-03-22T11:49:11.982Z,55.62
2018-03-22T11:50:49.384Z,55.64
2018-03-22T11:52:26.314Z,55.69
2018-03-22T11:54:03.331Z,55.71
2018-03-22T11:55:40.267Z,55.76
2018-03-22T11:57:17.752Z,55.77
2018-03-22T11:58:54.812Z,55.80
2018-03-22T12:00:33.678Z,55.83
2018-03-22T12:02:12.018Z,55.85
2018-03-22T12:03:49.954Z,55.88
2018-03-22T12:05:27.681Z,55.88
2018-03-22T12:07:04.686Z,55.89
2018-03-22T12:08:41.937Z,55.92
2018-03-22T12:10:18.975Z,55.94
2018-03-22T12:11:56.754Z,55.95
2018-03-22T12:13:33.731Z,55.96
2018-03-22T12:15:12.096Z,55.98
2018-03-22T12:16:51.508Z,56.01
2018-03-22T12:18:28.598Z,56.04
2018-03-22T12:20:06.114Z,56.06
2018-03-22T12:21:43.540Z,56.09
2018-03-22T12:23:20.811Z,56.11
2018-03-22T12:24:58.878Z,56.15
2018-03-22T12:26:37.160Z,56.18
2018-03-22T12:28:15.574Z,56.19
2018-03-22T12:29:52.533Z,56.21
2018-03-22T12:31:29.909Z,56.25
2018-03-22T12:33:06.989Z,56.29
2018-03-22T12:34:45.351Z,56.31
2018-03-22T12:36:22.258Z,56.30
2018-03-22T12:38:00.120Z,56.31
2018-03-22T12:39:37.224Z,56.36
2018-03-22T12:41:15.230Z,56.39
2018-03-22T12:42:52.393Z,56.42
2018-03-22T12:44:29.524Z,56.48
2018-03-22T12:46:07.482Z,56.49
2018-03-22T12:47:44.851Z,56.53
2018-03-22T12:49:21.900Z,56.57
2018-03-22T12:50:58.951Z,56.59
2018-03-22T12:52:36.406Z,56.60
2018-03-22T12:54:14.138Z,56.62
2018-03-22T12:55:52.234Z,56.64
2018-03-22T12:57:29.125Z,56.68
2018-03-22T12:59:06.325Z,56.71
2018-03-22T13:00:44.240Z,56.71
2018-03-22T13:02:21.677Z,56.73
2018-03-22T13:03:59.328Z,56.75
2018-03-22T13:05:36.536Z,56.79
2018-03-22T13:07:14.144Z,56.81
2018-03-22T13:08:52.202Z,56.84
2018-03-22T13:10:30.048Z,56.87
2018-03-22T13:12:07.141Z,56.91
2018-03-22T13:13:44.179Z,56.96
2018-03-22T13:15:21.731Z,56.98
2018-03-22T13:17:02.186Z,57.02
2018-03-22T13:18:41.794Z,57.07
2018-03-22T13:20:19.518Z,57.12
2018-03-22T13:21:56.907Z,57.17
2018-03-22T13:23:35.769Z,57.21
2018-03-22T13:25:13.428Z,57.22
2018-03-22T13:26:50.639Z,57.26
2018-03-22T13:28:28.743Z,57.28
2018-03-22T13:30:05.875Z,57.30
2018-03-22T13:31:43.456Z,57.34
2018-03-22T13:33:20.677Z,57.36
2018-03-22T13:34:58.004Z,57.40
2018-03-22T13:36:35.349Z,57.41
2018-03-22T13:38:13.558Z,57.45
2018-03-22T13:39:50.676Z,57.47
2018-03-22T13:41:27.869Z,57.48
2018-03-22T13:43:05.771Z,57.51
2018-03-22T13:46:16.459Z,57.58
2018-03-22T13:47:54.539Z,57.61
2018-03-22T13:49:32.961Z,57.64
2018-03-22T13:51:11.305Z,57.65
2018-03-22T13:52:49.179Z,57.64
2018-03-22T13:54:27.776Z,57.64
2018-03-22T13:56:06.210Z,57.67
2018-03-22T13:57:44.134Z,57.69
2018-03-22T13:59:22.051Z,57.70
2018-03-22T14:00:59.652Z,57.71
2018-03-22T14:02:38.257Z,57.74
2018-03-22T14:04:15.360Z,57.78
2018-03-22T14:05:52.753Z,57.82
2018-03-22T14:07:29.665Z,57.86
2018-03-22T14:09:07.345Z,57.90
2018-03-22T14:10:45.481Z,57.93
2018-03-22T14:12:22.633Z,57.96
2018-03-22T14:14:00.029Z,57.99
2018-03-22T14:15:38.674Z,58.03
2018-03-22T14:17:15.896Z,58.06
2018-03-22T14:18:53.201Z,58.09
2018-03-22T14:20:31.198Z,58.13
2018-03-22T14:22:09.258Z,58.14
2018-03-22T14:23:46.406Z,58.17
2018-03-22T14:25:23.468Z,58.17
2018-03-22T14:27:01.297Z,58.17
2018-03-22T14:28:38.774Z,58.21
2018-03-22T14:30:18.049Z,58.24
2018-03-22T14:31:55.356Z,58.27
2018-03-22T14:33:32.721Z,58.30
2018-03-22T14:35:09.749Z,58.30
2018-03-22T14:36:47.641Z,58.27
2018-03-22T14:38:25.470Z,58.29
2018-03-22T14:40:02.564Z,58.33
2018-03-22T14:41:41.810Z,58.38
2018-03-22T14:44:56.624Z,58.46
2018-03-22T14:46:34.095Z,58.48
2018-03-22T14:48:11.588Z,58.51
2018-03-22T14:49:50.232Z,58.53
2018-03-22T14:51:28.026Z,58.53
2018-03-22T14:53:05.220Z,58.54
2018-03-22T14:54:42.608Z,58.55
2018-03-22T14:56:19.796Z,58.56
2018-03-22T14:57:57.896Z,58.63
2018-03-22T14:59:34.961Z,58.67
2018-03-22T15:01:12.601Z,58.68
2018-03-22T15:02:49.590Z,58.71
2018-03-22T15:04:27.389Z,58.72
2018-03-22T15:06:04.365Z,58.75
2018-03-22T15:07:42.799Z,58.76
2018-03-22T15:09:19.940Z,58.77
2018-03-22T15:10:56.974Z,58.76
2018-03-22T15:12:34.140Z,58.79
2018-03-22T15:14:11.650Z,58.83
2018-03-22T15:15:48.941Z,58.86
2018-03-22T15:17:26.892Z,58.91
2018-03-22T15:19:04.974Z,58.93
2018-03-22T15:20:42.424Z,58.95
2018-03-22T15:22:19.620Z,58.96
2018-03-22T15:23:56.857Z,58.97
2018-03-22T15:25:34.702Z,58.99
2018-03-22T15:27:12.571Z,59.03
2018-03-22T15:28:49.664Z,59.04
2018-03-22T15:30:29.545Z,59.05
2018-03-22T15:32:06.799Z,59.08
2018-03-22T15:33:44.356Z,59.09
2018-03-22T15:35:21.569Z,59.12
2018-03-22T15:36:58.667Z,59.14
2018-03-22T15:38:35.712Z,59.17
2018-03-22T15:40:14.111Z,59.20
2018-03-22T15:43:38.127Z,59.22
2018-03-22T15:45:17.379Z,59.23
2018-03-22T15:46:55.183Z,59.25
2018-03-22T15:48:33.050Z,59.28
2018-03-22T15:50:10.176Z,59.29
2018-03-22T15:51:47.261Z,59.31
2018-03-22T15:53:26.710Z,59.29
2018-03-22T15:55:04.534Z,59.29
2018-03-22T15:56:41.709Z,59.31
2018-03-22T15:58:18.822Z,59.31
2018-03-22T15:59:56.862Z,59.33
2018-03-22T16:01:34.546Z,59.36
2018-03-22T16:03:11.699Z,59.37
2018-03-22T16:04:48.774Z,59.35
2018-03-22T16:06:34.541Z,59.34
2018-03-22T16:08:11.810Z,59.36
2018-03-22T16:09:48.732Z,59.39
2018-03-22T16:11:26.722Z,59.42
2018-03-22T16:13:04.044Z,59.46
2018-03-22T16:14:41.829Z,59.50
2018-03-22T16:16:19.215Z,59.50
2018-03-22T16:17:56.168Z,59.51
2018-03-22T16:19:33.557Z,59.51
2018-03-22T16:21:10.661Z,59.52
2018-03-22T16:22:48.567Z,59.52
2018-03-22T16:24:25.811Z,59.53
2018-03-22T16:26:03.875Z,59.54
2018-03-22T16:27:41.559Z,59.54
2018-03-22T16:29:19.206Z,59.54
2018-03-22T16:30:56.550Z,59.53
2018-03-22T16:32:34.233Z,59.57
2018-03-22T16:34:11.268Z,59.57
2018-03-22T16:35:48.362Z,59.58
2018-03-22T16:37:25.353Z,59.58
2018-03-22T16:39:03.814Z,59.58
2018-03-22T16:40:40.991Z,59.59
2018-03-22T16:42:18.228Z,59.60
2018-03-22T16:43:55.289Z,59.62
2018-03-22T16:45:32.594Z,59.63
2018-03-22T16:47:09.643Z,59.63
2018-03-22T16:48:46.732Z,59.64
2018-03-22T16:50:23.842Z,59.64
2018-03-22T16:52:01.221Z,59.65
2018-03-22T16:53:38.245Z,59.66
2018-03-22T16:55:16.006Z,59.68
2018-03-22T16:56:53.008Z,59.69
2018-03-22T16:58:31.479Z,59.69
2018-03-22T17:00:08.562Z,59.69
2018-03-22T17:01:46.126Z,59.71
2018-03-22T17:03:24.183Z,59.69
2018-03-22T17:05:01.546Z,59.69
2018-03-22T17:06:38.760Z,59.71
2018-03-22T17:08:16.714Z,59.71
2018-03-22T17:10:00.313Z,59.73
2018-03-22T17:11:38.477Z,59.75
2018-03-22T17:13:15.389Z,59.78
2018-03-22T17:14:52.368Z,59.80
2018-03-22T17:16:29.581Z,59.82
2018-03-22T17:18:07.431Z,59.84
2018-03-22T17:19:44.478Z,59.86
2018-03-22T17:21:22.339Z,59.88
2018-03-22T17:22:59.455Z,59.88
2018-03-22T17:24:37.095Z,59.92
2018-03-22T17:26:14.872Z,59.93
2018-03-22T17:27:51.913Z,59.95
2018-03-22T17:29:28.896Z,59.97
2018-03-22T17:31:06.621Z,59.97
2018-03-22T17:32:44.126Z,59.98
2018-03-22T17:34:21.537Z,60.00
2018-03-22T17:35:58.677Z,59.99
2018-03-22T17:37:36.097Z,59.99
2018-03-22T17:39:12.973Z,60.01
2018-03-22T17:40:50.892Z,60.00
2018-03-22T17:42:28.150Z,60.00
2018-03-22T17:44:05.688Z,59.97
2018-03-22T17:45:43.025Z,59.97
2018-03-22T17:47:20.404Z,59.96
2018-03-22T17:48:57.348Z,59.98
2018-03-22T17:50:34.672Z,59.99
2018-03-22T17:52:12.426Z,59.99
2018-03-22T17:53:49.284Z,60.00
2018-03-22T17:55:26.482Z,60.00
2018-03-22T17:57:04.024Z,60.01
2018-03-22T17:58:41.347Z,60.03
2018-03-22T18:00:20.023Z,60.05
2018-03-22T18:01:57.163Z,60.07
2018-03-22T18:03:35.116Z,60.09
2018-03-22T18:05:12.458Z,60.12
2018-03-22T18:06:50.394Z,60.14
2018-03-22T18:08:27.644Z,60.16
2018-03-22T18:10:05.190Z,60.17
2018-03-22T18:11:42.575Z,60.18
2018-03-22T18:13:22.055Z,60.19
2018-03-22T18:14:59.060Z,60.21
2018-03-22T18:16:38.527Z,60.22
2018-03-22T18:18:15.441Z,60.21
2018-03-22T18:19:53.507Z,60.21
2018-03-22T18:21:30.504Z,60.22
2018-03-22T18:23:10.218Z,60.22
2018-03-22T18:24:47.509Z,60.23
2018-03-22T18:26:24.543Z,60.23
2018-03-22T18:28:02.298Z,60.23
2018-03-22T18:29:39.926Z,60.24
2018-03-22T18:31:17.189Z,60.25
2018-03-22T18:32:54.128Z,60.26
2018-03-22T18:34:31.432Z,60.27
2018-03-22T18:36:09.050Z,60.28
2018-03-22T18:37:47.024Z,60.29
2018-03-22T18:39:24.069Z,60.30
2018-03-22T18:41:02.035Z,60.33
2018-03-22T18:42:40.276Z,60.34
2018-03-22T18:44:17.343Z,60.35
2018-03-22T18:45:54.604Z,60.35
2018-03-22T18:47:32.268Z,60.33
2018-03-22T18:49:10.447Z,60.33
2018-03-22T18:50:48.312Z,60.31
2018-03-22T18:52:26.197Z,60.31
2018-03-22T18:54:03.390Z,60.31
2018-03-22T18:55:40.827Z,60.30
2018-03-22T18:57:18.315Z,60.33
2018-03-22T18:58:55.402Z,60.32
2018-03-22T19:00:35.183Z,60.31
2018-03-22T19:02:14.744Z,60.30
2018-03-22T19:03:52.600Z,60.29
2018-03-22T19:05:30.437Z,60.29
2018-03-22T19:07:07.813Z,60.30
2018-03-22T19:08:46.687Z,60.32
2018-03-22T19:12:11.924Z,60.35
2018-03-22T19:13:50.458Z,60.36
2018-03-22T19:15:29.675Z,60.36
2018-03-22T19:17:07.191Z,60.38
2018-03-22T19:18:45.833Z,60.37
2018-03-22T19:20:23.726Z,60.38
2018-03-22T19:22:01.123Z,60.39
2018-03-22T19:23:38.317Z,60.40
2018-03-22T19:25:16.278Z,60.40
2018-03-22T19:26:53.955Z,60.41
2018-03-22T19:28:31.776Z,60.43
2018-03-22T19:30:09.073Z,60.44
2018-03-22T19:31:47.312Z,60.44
2018-03-22T19:33:24.710Z,60.46
2018-03-22T19:35:01.539Z,60.49
2018-03-22T19:36:38.649Z,60.49
2018-03-22T19:38:15.540Z,60.51
2018-03-22T19:39:52.996Z,60.54
2018-03-22T19:41:29.906Z,60.57
2018-03-22T19:43:06.703Z,60.58
2018-03-22T19:44:43.908Z,60.58
2018-03-22T19:46:23.166Z,60.58
2018-03-22T19:48:00.109Z,60.59
2018-03-22T19:49:37.227Z,60.59
2018-03-22T19:51:14.533Z,60.59
2018-03-22T19:52:51.958Z,60.60
2018-03-22T19:54:29.090Z,60.61
2018-03-22T19:56:06.246Z,60.61
2018-03-22T19:57:43.361Z,60.63
2018-03-22T19:59:20.738Z,60.63
2018-03-22T20:01:00.080Z,60.64
2018-03-22T20:02:38.059Z,60.66
2018-03-22T20:04:15.179Z,60.66
2018-03-22T20:05:53.331Z,60.68
2018-03-22T20:07:30.495Z,60.71
2018-03-22T20:09:07.877Z,60.74
2018-03-22T20:10:45.685Z,60.75
2018-03-22T20:12:23.229Z,60.75
2018-03-22T20:14:00.916Z,60.76
2018-03-22T20:15:38.478Z,60.78
2018-03-22T20:17:15.652Z,60.78
2018-03-22T20:18:53.232Z,60.82
2018-03-22T20:20:30.273Z,60.84
2018-03-22T20:22:07.418Z,60.85
2018-03-22T20:23:44.521Z,60.89
2018-03-22T20:25:22.198Z,60.89
2018-03-22T20:26:59.232Z,60.88
2018-03-22T20:28:36.329Z,60.88
2018-03-22T20:30:46.170Z,60.89
2018-03-22T20:32:23.708Z,60.90
2018-03-22T20:34:01.479Z,60.89
2018-03-22T20:35:38.708Z,60.92
2018-03-22T20:37:16.045Z,60.93
2018-03-22T20:38:53.360Z,60.95
2018-03-22T20:40:30.312Z,60.96
2018-03-22T20:42:07.783Z,60.98
2018-03-22T20:43:44.853Z,60.98
2018-03-22T20:45:22.358Z,60.99
2018-03-22T20:47:01.339Z,60.99
2018-03-22T20:48:38.375Z,60.99
2018-03-22T20:50:15.588Z,61.00
2018-03-22T20:51:52.816Z,60.99
2018-03-22T20:53:29.682Z,60.98
2018-03-22T20:55:10.759Z,60.99
2018-03-22T20:56:49.968Z,60.99
2018-03-22T20:58:27.190Z,61.01
2018-03-22T21:00:04.264Z,61.02
2018-03-22T21:01:42.462Z,61.04
2018-03-22T21:03:19.441Z,61.04
2018-03-22T21:04:56.813Z,61.06
2018-03-22T21:06:34.011Z,61.06
2018-03-22T21:08:10.947Z,61.04
2018-03-22T21:09:48.680Z,61.03
2018-03-22T21:11:25.861Z,61.03
2018-03-22T21:13:02.853Z,61.03
2018-03-22T21:14:40.038Z,61.02
2018-03-22T21:16:17.243Z,61.05
2018-03-22T21:17:54.428Z,61.06
2018-03-22T21:19:31.609Z,61.08
2018-03-22T21:21:09.513Z,61.11
2018-03-22T21:22:46.916Z,61.13
2018-03-22T21:24:25.231Z,61.14